^^
Grace C. Lehan Memorial Weather Station Historical Data
Daily Summary for August 24, 2021 Units:  Metric    English   Both
Daily Weekly Monthly Yearly
  High: Low: Average:
Temperature: 26.7 °C 10.9 °C 19.7 °C
Dew Point: 14.6 °C 9.6 °C 11.7 °C
Humidity: 92% 36.7% 63%
Wind Speed: 3.5km/h 0km/h 0.3km/h
Wind Gust: 19.3km/h - -
Wind- - SE
Pressure: 1028.7 hPa 1024.9 hPa -
Precipitation: 0 mm    
 
 
Tabular Data for August 24, 2021
Time Temperature Dew Point Pressure Wind Wind Speed Wind Gust Humidity Rainfall Rate (Hourly) solar
00:04 14.6 °C 11.2 °C 1024.9 hPa Calm     80% 0 mm 0 W/m2
00:09 14.6 °C 11.3 °C 1024.9 hPa Calm     80.9% 0 mm 0 W/m2
00:14 14.5 °C 11.3 °C 1025.3 hPa Calm     81% 0 mm 0 W/m2
00:19 14.4 °C 11.2 °C 1025.3 hPa Calm     81% 0 mm 0 W/m2
00:24 14.4 °C 11.3 °C 1025.3 hPa Calm     82% 0 mm 0 W/m2
00:29 14.3 °C 11.4 °C 1025.3 hPa Calm     82.8% 0 mm 0 W/m2
00:34 14.2 °C 11.3 °C 1025.3 hPa Calm     83% 0 mm 0 W/m2
00:39 14.1 °C 11.3 °C 1025.3 hPa Calm     83% 0 mm 0 W/m2
00:44 14 °C 11.2 °C 1025.3 hPa Calm     83% 0 mm 0 W/m2
00:49 13.9 °C 11.2 °C 1025.3 hPa Calm     83.7% 0 mm 0 W/m2
00:54 13.8 °C 11.2 °C 1025.3 hPa Calm     84% 0 mm 0 W/m2
00:59 13.7 °C 11.1 °C 1025.3 hPa Calm     84% 0 mm 0 W/m2
01:04 13.6 °C 11 °C 1025.3 hPa Calm     84.3% 0 mm 0 W/m2
01:09 13.6 °C 11.1 °C 1025.3 hPa Calm     85% 0 mm 0 W/m2
01:14 13.5 °C 11.1 °C 1025.6 hPa Calm     85% 0 mm 0 W/m2
01:19 13.4 °C 11 °C 1025.6 hPa Calm     85% 0 mm 0 W/m2
01:24 13.4 °C 10.9 °C 1025.6 hPa Calm     85% 0 mm 0 W/m2
01:29 13.3 °C 10.9 °C 1025.6 hPa Calm     85% 0 mm 0 W/m2
01:34 13.3 °C 10.9 °C 1025.6 hPa Calm     85.3% 0 mm 0 W/m2
01:39 13.3 °C 10.9 °C 1025.6 hPa Calm     86% 0 mm 0 W/m2
01:44 13.2 °C 10.9 °C 1025.6 hPa Calm     86% 0 mm 0 W/m2
01:49 13.2 °C 10.9 °C 1025.6 hPa Calm     86% 0 mm 0 W/m2
01:54 13.1 °C 10.8 °C 1026 hPa Calm     86% 0 mm 0 W/m2
01:59 13.1 °C 10.8 °C 1026 hPa Calm     86.3% 0 mm 0 W/m2
02:04 13 °C 10.9 °C 1025.6 hPa Calm     87% 0 mm 0 W/m2
02:09 12.9 °C 10.8 °C 1026 hPa Calm     86.7% 0 mm 0 W/m2
02:14 12.8 °C 10.6 °C 1026 hPa Calm     86.1% 0 mm 0 W/m2
02:19 12.8 °C 10.7 °C 1026 hPa Calm     87% 0 mm 0 W/m2
02:24 12.7 °C 10.6 °C 1026 hPa Calm     87% 0 mm 0 W/m2
02:29 12.7 °C 10.6 °C 1026 hPa Calm     87% 0 mm 0 W/m2
02:34 12.6 °C 10.5 °C 1026 hPa Calm     87% 0 mm 0 W/m2
02:39 12.6 °C 10.4 °C 1026 hPa Calm     87% 0 mm 0 W/m2
02:44 12.5 °C 10.4 °C 1026 hPa Calm     87% 0 mm 0 W/m2
02:49 12.4 °C 10.3 °C 1026 hPa Calm     87% 0 mm 0 W/m2
02:54 12.4 °C 10.3 °C 1026 hPa Calm     87% 0 mm 0 W/m2
02:59 12.3 °C 10.2 °C 1026 hPa Calm     87.2% 0 mm 0 W/m2
03:04 12.2 °C 10.2 °C 1026 hPa Calm     87% 0 mm 0 W/m2
03:09 12.2 °C 10.2 °C 1026 hPa Calm     87.7% 0 mm 0 W/m2
03:14 12.1 °C 10.2 °C 1026.3 hPa Calm     88% 0 mm 0 W/m2
03:19 12.1 °C 10.2 °C 1026.3 hPa Calm     88% 0 mm 0 W/m2
03:24 12 °C 10.1 °C 1026.3 hPa Calm     88% 0 mm 0 W/m2
03:29 11.9 °C 10 °C 1026 hPa Calm     88% 0 mm 0 W/m2
03:34 11.9 °C 10 °C 1026.3 hPa Calm     88.2% 0 mm 0 W/m2
03:39 11.8 °C 10.1 °C 1026.3 hPa Calm     89% 0 mm 0 W/m2
03:44 11.8 °C 10.1 °C 1026.3 hPa Calm     89% 0 mm 0 W/m2
03:49 11.8 °C 10 °C 1026.3 hPa Calm     89% 0 mm 0 W/m2
03:54 11.7 °C 10 °C 1026.3 hPa Calm     89% 0 mm 0 W/m2
03:59 11.7 °C 9.9 °C 1026.3 hPa Calm     89% 0 mm 0 W/m2
04:09 11.6 °C 10 °C 1026 hPa Calm     90% 0 mm 0 W/m2
04:14 11.6 °C 9.9 °C 1026.3 hPa Calm     90% 0 mm 0 W/m2
04:19 11.5 °C 9.9 °C 1026.3 hPa Calm     90% 0 mm 0 W/m2
04:24 11.4 °C 9.9 °C 1026.3 hPa Calm     90% 0 mm 0 W/m2
04:29 11.4 °C 9.8 °C 1026.3 hPa Calm     90% 0 mm 0 W/m2
04:34 11.4 °C 9.8 °C 1026.3 hPa Calm     90% 0 mm 0 W/m2
04:39 11.3 °C 9.8 °C 1026.3 hPa Calm     90% 0 mm 0 W/m2
04:44 11.3 °C 9.7 °C 1026.6 hPa Calm     90% 0 mm 0 W/m2
04:49 11.3 °C 9.7 °C 1026.6 hPa Calm     90% 0 mm 0 W/m2
04:54 11.2 °C 9.7 °C 1026.6 hPa Calm     90% 0 mm 0 W/m2
04:59 11.2 °C 9.6 °C 1027 hPa Calm     90% 0 mm 0 W/m2
05:04 11.2 °C 9.6 °C 1027 hPa Calm     90% 0 mm 0 W/m2
05:09 11.1 °C 9.6 °C 1027 hPa Calm     90% 0 mm 0 W/m2
05:14 11.1 °C 9.6 °C 1027 hPa Calm     90.7% 0 mm 0 W/m2
05:19 11.1 °C 9.6 °C 1027.3 hPa Calm     91% 0 mm 0 W/m2
05:24 11 °C 9.6 °C 1027.3 hPa Calm     91% 0 mm 0 W/m2
05:29 11 °C 9.6 °C 1027.3 hPa Calm     91% 0 mm 5 W/m2
05:34 11 °C 9.6 °C 1027.3 hPa Calm     91% 0 mm 7 W/m2
05:39 11 °C 9.6 °C 1027.7 hPa Calm     91% 0 mm 9 W/m2
05:44 10.9 °C 9.6 °C 1027.7 hPa Calm     91% 0 mm 11 W/m2
05:49 10.9 °C 9.6 °C 1027.7 hPa Calm     91% 0 mm 12 W/m2
05:54 10.9 °C 9.6 °C 1027.7 hPa Calm     91% 0 mm 16 W/m2
05:59 10.9 °C 9.6 °C 1027.7 hPa Calm     91% 0 mm 16 W/m2
06:04 11 °C 9.7 °C 1027.7 hPa Calm     91.5% 0 mm 18 W/m2
06:09 11.1 °C 9.8 °C 1027.7 hPa Calm     92% 0 mm 18 W/m2
06:14 11.1 °C 9.9 °C 1028 hPa Calm     92% 0 mm 19 W/m2
06:19 11.2 °C 9.9 °C 1028 hPa Calm     92% 0 mm 21 W/m2
06:24 11.3 °C 10 °C 1028 hPa Calm     92% 0 mm 23 W/m2
06:29 11.4 °C 10.1 °C 1028 hPa Calm     92% 0 mm 32 W/m2
06:34 11.5 °C 10.2 °C 1028 hPa Calm     92% 0 mm 42 W/m2
06:39 11.7 °C 10.4 °C 1028 hPa Calm     92% 0 mm 47 W/m2
06:44 11.9 °C 10.6 °C 1028 hPa Calm     92% 0 mm 54 W/m2
06:49 12.2 °C 10.9 °C 1028 hPa Calm     92% 0 mm 65 W/m2
06:54 12.6 °C 11.3 °C 1028.3 hPa Calm     91.8% 0 mm 67 W/m2
06:59 13.1 °C 11.4 °C 1028.3 hPa NNE 0.3 km/h 3.2 km/h 89.4% 0 mm 69 W/m2
07:04 13.6 °C 11.5 °C 1028.3 hPa Calm   3.2 km/h 87% 0 mm 70 W/m2
07:09 14.1 °C 11.7 °C 1028.3 hPa Calm     85.5% 0 mm 72 W/m2
07:14 14.6 °C 11.9 °C 1028.3 hPa Calm     83.4% 0 mm 74 W/m2
07:19 15.1 °C 11.8 °C 1028.3 hPa Calm   1.6 km/h 80.5% 0 mm 74 W/m2
07:24 15.5 °C 11.9 °C 1028.3 hPa Calm   1.6 km/h 79.1% 0 mm 192 W/m2
07:29 15.9 °C 12 °C 1028.7 hPa NNE 0.3 km/h 3.2 km/h 77.6% 0 mm 346 W/m2
07:34 16.4 °C 12.3 °C 1028.3 hPa Calm   3.2 km/h 76.8% 0 mm 366 W/m2
07:39 16.8 °C 12.4 °C 1028.7 hPa Calm     75.2% 0 mm 383 W/m2
07:44 17.2 °C 12.4 °C 1028.7 hPa Calm   1.6 km/h 73.8% 0 mm 408 W/m2
07:49 17.4 °C 12.3 °C 1028.7 hPa Calm   1.6 km/h 72.1% 0 mm 425 W/m2
07:54 17.6 °C 12.3 °C 1028.3 hPa Calm   1.6 km/h 71.1% 0 mm 441 W/m2
07:59 17.8 °C 12.3 °C 1028.7 hPa NNE 0.2 km/h 4.8 km/h 70.1% 0 mm 459 W/m2
08:00 17.9 °C 12.2 °C 1028.3 hPa Calm   4.8 km/h 69% 0 mm 459 W/m2
08:09 18.4 °C 12.3 °C 1028.7 hPa Calm     67.6% 0 mm 489 W/m2
08:14 18.7 °C 12.3 °C 1028.7 hPa Calm     66.1% 0 mm 508 W/m2
08:19 19.2 °C 12.9 °C 1028.3 hPa Calm     67.1% 0 mm 526 W/m2
08:24 19.6 °C 12.7 °C 1028.3 hPa NNE 0.5 km/h 3.2 km/h 64.2% 0 mm 541 W/m2
08:29 19.8 °C 12.7 °C 1028.7 hPa NNE 0.3 km/h 3.2 km/h 63.4% 0 mm 559 W/m2
08:34 19.9 °C 12.6 °C 1028.7 hPa NNE 0.6 km/h 6.4 km/h 62.6% 0 mm 573 W/m2
08:39 19.9 °C 12.3 °C 1028.7 hPa Calm   6.4 km/h 61.6% 0 mm 591 W/m2
08:44 20 °C 12.7 °C 1028.7 hPa Calm   6.4 km/h 62.8% 0 mm 606 W/m2
08:49 20.3 °C 12.9 °C 1028.7 hPa Calm   6.4 km/h 62.3% 0 mm 622 W/m2
08:54 20.6 °C 13.1 °C 1028.7 hPa Calm   6.4 km/h 61.9% 0 mm 636 W/m2
08:59 20.9 °C 13.2 °C 1028.7 hPa Calm   6.4 km/h 61.5% 0 mm 652 W/m2
09:04 21.2 °C 13.5 °C 1028.7 hPa Calm   6.4 km/h 61.6% 0 mm 666 W/m2
09:09 21.4 °C 13.6 °C 1028.7 hPa Calm     61.2% 0 mm 682 W/m2
09:14 21.7 °C 13.8 °C 1028.7 hPa Calm     60.9% 0 mm 691 W/m2
09:19 21.9 °C 13.8 °C 1028.7 hPa NNE 0.5 km/h 4.8 km/h 59.6% 0 mm 707 W/m2
09:24 22.1 °C 13.3 °C 1028.7 hPa Calm   4.8 km/h 57.4% 0 mm 722 W/m2
09:29 22.3 °C 13.4 °C 1028.7 hPa NNE 0.2 km/h 4.8 km/h 57.3% 0 mm 738 W/m2
09:34 22.7 °C 13.7 °C 1028.7 hPa Calm   4.8 km/h 57% 0 mm 754 W/m2
09:39 22.9 °C 13.9 °C 1028.7 hPa Calm     56.6% 0 mm 763 W/m2
09:44 23.1 °C 13.7 °C 1028.7 hPa Calm     55.7% 0 mm 777 W/m2
09:49 23.2 °C 14.3 °C 1028.7 hPa NNE 0.2 km/h 3.2 km/h 57.3% 0 mm 791 W/m2
09:54 23.6 °C 14.6 °C 1028.7 hPa NNE 0.5 km/h 4.8 km/h 57.1% 0 mm 803 W/m2
09:59 23.9 °C 14.4 °C 1028.7 hPa NE 1.3 km/h 8 km/h 55.3% 0 mm 817 W/m2
10:04 24.3 °C 14.4 °C 1028.7 hPa NE 0.2 km/h 8 km/h 54% 0 mm 835 W/m2
10:09 24.6 °C 14.3 °C 1028.7 hPa NE 0.2 km/h 3.2 km/h 52.7% 0 mm 844 W/m2
10:14 24.6 °C 13.4 °C 1028.7 hPa Calm   3.2 km/h 49.7% 0 mm 851 W/m2
10:19 24.7 °C 13.8 °C 1028.3 hPa Calm   3.2 km/h 50.6% 0 mm 858 W/m2
10:24 25.1 °C 14.3 °C 1028.3 hPa NE 0.6 km/h 4.8 km/h 51.2% 0 mm 867 W/m2
10:29 25.4 °C 14.4 °C 1028.3 hPa Calm   4.8 km/h 50.8% 0 mm 875 W/m2
10:34 25.4 °C 14.5 °C 1028.3 hPa NE 0.5 km/h 4.8 km/h 50.7% 0 mm 882 W/m2
10:39 25.6 °C 13.9 °C 1028.3 hPa ESE 0.3 km/h 6.4 km/h 48.7% 0 mm 886 W/m2
10:44 25.6 °C 13.6 °C 1028.3 hPa Calm   6.4 km/h 47.3% 0 mm 898 W/m2
10:49 25.7 °C 14.2 °C 1028.3 hPa ESE 0.8 km/h 6.4 km/h 49.1% 0 mm 905 W/m2
10:54 25.7 °C 13.3 °C 1028.3 hPa East 1.1 km/h 6.4 km/h 46.3% 0 mm 918 W/m2
10:59 25.7 °C 13.4 °C 1028.3 hPa ENE 0.8 km/h 6.4 km/h 46.5% 0 mm 919 W/m2
11:04 25.8 °C 12.9 °C 1028.3 hPa ENE 0.2 km/h 6.4 km/h 44.7% 0 mm 930 W/m2
11:09 25.8 °C 13.1 °C 1028.3 hPa East 1.1 km/h 9.7 km/h 45.1% 0 mm 940 W/m2
11:14 25.8 °C 11.8 °C 1028.3 hPa ENE 1.6 km/h 9.7 km/h 41.6% 0 mm 946 W/m2
11:19 26 °C 12 °C 1028 hPa ENE 2.6 km/h 9.7 km/h 41.7% 0 mm 951 W/m2
11:24 26.2 °C 11.6 °C 1028 hPa East 1.8 km/h 9.7 km/h 40.1% 0 mm 954 W/m2
11:29 26.2 °C 11.2 °C 1028 hPa ESE 0.8 km/h 9.7 km/h 39.1% 0 mm 954 W/m2
11:34 25.9 °C 11.4 °C 1028 hPa ESE 0.3 km/h 9.7 km/h 40.2% 0 mm 963 W/m2
11:39 25.8 °C 12 °C 1028 hPa South 1 km/h 9.7 km/h 42.2% 0 mm 970 W/m2
11:44 25.8 °C 12.1 °C 1028 hPa ESE 1.8 km/h 9.7 km/h 42.4% 0 mm 983 W/m2
11:49 25.8 °C 11.6 °C 1028 hPa SE 2.4 km/h 9.7 km/h 41.2% 0 mm 997 W/m2
11:54 25.7 °C 12 °C 1028 hPa SW 0.3 km/h 9.7 km/h 42.4% 0 mm 1007 W/m2
11:59 25.9 °C 12.4 °C 1028 hPa East 1.1 km/h 9.7 km/h 43% 0 mm 1005 W/m2
12:00 26.1 °C 12.9 °C 1028 hPa Calm   9.7 km/h 44% 0 mm 990 W/m2
12:09 26.4 °C 12.5 °C 1028 hPa East 0.6 km/h 4.8 km/h 42.1% 0 mm 1016 W/m2
12:14 26.4 °C 12.1 °C 1028 hPa ESE 1.4 km/h 8 km/h 40.9% 0 mm 1005 W/m2
12:19 26.4 °C 11.8 °C 1028 hPa ESE 0.6 km/h 8 km/h 40.3% 0 mm 1009 W/m2
12:24 26.4 °C 11.8 °C 1028 hPa ESE 0.2 km/h 8 km/h 40.3% 0 mm 1011 W/m2
12:29 26.3 °C 10.8 °C 1028 hPa SE 1.9 km/h 19.3 km/h 37.7% 0 mm 1014 W/m2
12:34 26.2 °C 11 °C 1028 hPa ENE 2.6 km/h 19.3 km/h 38.7% 0 mm 1030 W/m2
12:39 26.3 °C 11.2 °C 1028 hPa ENE 3.5 km/h 11.3 km/h 38.9% 0 mm 1020 W/m2
12:44 26.4 °C 10.8 °C 1027.7 hPa SE 1.4 km/h 11.3 km/h 37.6% 0 mm 1016 W/m2
12:49 26.4 °C 11 °C 1027.7 hPa SW 0.8 km/h 11.3 km/h 38.2% 0 mm 1016 W/m2
12:54 26.4 °C 11.7 °C 1027.7 hPa SW 0.6 km/h 11.3 km/h 39.8% 0 mm 1014 W/m2
12:59 26.3 °C 11.2 °C 1028 hPa SSW 0.5 km/h 11.3 km/h 38.8% 0 mm 1018 W/m2
13:04 26.4 °C 11.2 °C 1028 hPa SE 0.5 km/h 11.3 km/h 38.7% 0 mm 1018 W/m2
13:09 26.4 °C 11 °C 1027.7 hPa SSW 2.1 km/h 8 km/h 38.1% 0 mm 1018 W/m2
13:14 26.6 °C 11.4 °C 1027.7 hPa WSW 0.6 km/h 8 km/h 38.9% 0 mm 1032 W/m2
13:19 26.7 °C 11.1 °C 1028 hPa SSE 1.4 km/h 8 km/h 37.7% 0 mm 1028 W/m2
13:24 26.4 °C 10.4 °C 1027.7 hPa ESE 0.8 km/h 8 km/h 36.7% 0 mm 1014 W/m2
13:29 26.3 °C 11.1 °C 1027.7 hPa SSW 0.6 km/h 8 km/h 38.7% 0 mm 1013 W/m2
13:34 26.4 °C 11.7 °C 1027.7 hPa West 2.1 km/h 8 km/h 39.9% 0 mm 1007 W/m2
13:39 26.7 °C 11.3 °C 1027.7 hPa SE 1 km/h 8 km/h 38.3% 0 mm 1007 W/m2
13:44 26.6 °C 11.6 °C 1027.7 hPa ESE 0.8 km/h 8 km/h 39.2% 0 mm 1002 W/m2
13:49 26.6 °C 11.2 °C 1027.7 hPa SSE 1 km/h 8 km/h 38.3% 0 mm 1004 W/m2
13:54 26.6 °C 11.8 °C 1027.3 hPa SSW 0.8 km/h 8 km/h 39.9% 0 mm 1000 W/m2
13:59 26.7 °C 11.8 °C 1027.7 hPa South 0.2 km/h 8 km/h 39.6% 0 mm 995 W/m2
14:04 26.7 °C 12.4 °C 1027.7 hPa South 0.6 km/h 8 km/h 41.1% 0 mm 1005 W/m2
14:09 26.7 °C 12.6 °C 1027.3 hPa SE 1.4 km/h 6.4 km/h 41.7% 0 mm 1009 W/m2
14:14 26.6 °C 12.1 °C 1027.7 hPa SE 2.3 km/h 9.7 km/h 40.6% 0 mm 990 W/m2
14:19 26.4 °C 11.8 °C 1027.7 hPa ESE 0.3 km/h 9.7 km/h 40.1% 0 mm 1035 W/m2
14:24 26.4 °C 12.7 °C 1027.7 hPa SE 0.3 km/h 9.7 km/h 42.6% 0 mm 998 W/m2
14:29 26.3 °C 12.1 °C 1027.7 hPa SE 0.5 km/h 9.7 km/h 41.1% 0 mm 974 W/m2
14:34 26.2 °C 12.2 °C 1027.3 hPa SE 0.8 km/h 9.7 km/h 41.7% 0 mm 972 W/m2
14:39 26.2 °C 12 °C 1027 hPa ESE 2.6 km/h 19.3 km/h 41.2% 0 mm 947 W/m2
14:44 26.1 °C 12.2 °C 1027 hPa ESE 1 km/h 19.3 km/h 42% 0 mm 940 W/m2
14:49 26.1 °C 12.2 °C 1027.3 hPa SSW 0.8 km/h 19.3 km/h 42% 0 mm 933 W/m2
14:54 26.1 °C 12.1 °C 1027.3 hPa SE 0.6 km/h 19.3 km/h 41.6% 0 mm 928 W/m2
14:59 26.1 °C 11.8 °C 1027.3 hPa SSE 0.6 km/h 19.3 km/h 41% 0 mm 916 W/m2
15:04 26.1 °C 11.9 °C 1027.3 hPa SSE 1.1 km/h 19.3 km/h 41.3% 0 mm 912 W/m2
15:09 25.9 °C 11.8 °C 1027.3 hPa SE 0.3 km/h 4.8 km/h 41.3% 0 mm 902 W/m2
15:14 25.9 °C 11.9 °C 1027.3 hPa SSW 0.6 km/h 6.4 km/h 41.9% 0 mm 893 W/m2
15:19 25.9 °C 12.3 °C 1027.3 hPa South 1.6 km/h 9.7 km/h 42.8% 0 mm 893 W/m2
15:24 25.8 °C 12.1 °C 1027 hPa ESE 1.4 km/h 9.7 km/h 42.5% 0 mm 881 W/m2
15:29 25.5 °C 12.2 °C 1027 hPa ESE 0.8 km/h 9.7 km/h 43.6% 0 mm 860 W/m2
15:34 25.4 °C 12.1 °C 1027 hPa ESE 1.1 km/h 9.7 km/h 43.5% 0 mm 851 W/m2
15:39 25.4 °C 12.4 °C 1027 hPa ESE 1.4 km/h 8 km/h 44.3% 0 mm 840 W/m2
15:44 25.4 °C 12.3 °C 1027 hPa ESE 0.8 km/h 9.7 km/h 44.2% 0 mm 831 W/m2
15:49 25.3 °C 12.1 °C 1027 hPa ESE 0.2 km/h 9.7 km/h 43.5% 0 mm 817 W/m2
15:54 25.4 °C 12.4 °C 1027 hPa ESE 0.3 km/h 9.7 km/h 44.5% 0 mm 807 W/m2
15:59 25.5 °C 12.5 °C 1027 hPa SE 0.3 km/h 9.7 km/h 44.4% 0 mm 793 W/m2
16:00 25.5 °C 12.7 °C 1027 hPa Calm   9.7 km/h 45% 0 mm 780 W/m2
16:09 25.4 °C 12.4 °C 1027 hPa East 0.3 km/h 3.2 km/h 44.2% 0 mm 766 W/m2
16:14 25.3 °C 12 °C 1027 hPa ESE 0.8 km/h 4.8 km/h 43.4% 0 mm 758 W/m2
16:19 25.1 °C 12.1 °C 1026.6 hPa SE 1 km/h 4.8 km/h 44.2% 0 mm 747 W/m2
16:24 24.9 °C 12.2 °C 1026.6 hPa SSE 0.3 km/h 9.7 km/h 45% 0 mm 40 W/m2
16:29 24.7 °C 11.9 °C 1026.6 hPa SE 0.8 km/h 9.7 km/h 44.6% 0 mm 39 W/m2
16:34 24.6 °C 11.8 °C 1026.6 hPa SSE 0.5 km/h 9.7 km/h 44.9% 0 mm 39 W/m2
16:39 24.4 °C 11.7 °C 1026.3 hPa SSW 0.6 km/h 8 km/h 44.9% 0 mm 37 W/m2
16:44 24.3 °C 11.7 °C 1026.3 hPa SSW 1.1 km/h 8 km/h 45.4% 0 mm 37 W/m2
16:49 24.3 °C 11.8 °C 1026.3 hPa SSE 0.6 km/h 8 km/h 45.7% 0 mm 37 W/m2
16:54 24.3 °C 11.8 °C 1026 hPa South 0.2 km/h 8 km/h 45.8% 0 mm 35 W/m2
16:59 24.2 °C 11.8 °C 1026 hPa SW 0.2 km/h 8 km/h 45.9% 0 mm 35 W/m2
17:04 24.2 °C 11.6 °C 1026.3 hPa SW 0.2 km/h 8 km/h 45.3% 0 mm 35 W/m2
17:09 24.2 °C 11.6 °C 1026 hPa SE 1 km/h 4.8 km/h 45.4% 0 mm 35 W/m2
17:14 24.1 °C 11.8 °C 1026 hPa ESE 0.5 km/h 4.8 km/h 46.1% 0 mm 33 W/m2
17:19 24.1 °C 11.7 °C 1026 hPa East 0.8 km/h 4.8 km/h 45.8% 0 mm 33 W/m2
17:24 24 °C 11.6 °C 1026 hPa Calm   4.8 km/h 45.7% 0 mm 33 W/m2
17:29 23.9 °C 11.5 °C 1026 hPa Calm   4.8 km/h 45.5% 0 mm 32 W/m2
17:34 23.9 °C 11.4 °C 1026 hPa SE 0.6 km/h 4.8 km/h 45.5% 0 mm 32 W/m2
17:39 23.9 °C 11.1 °C 1025.6 hPa SE 1.8 km/h 8 km/h 44.4% 0 mm 32 W/m2
17:44 23.9 °C 11.1 °C 1025.6 hPa SSE 0.2 km/h 8 km/h 44.4% 0 mm 32 W/m2
17:49 23.9 °C 11.3 °C 1025.6 hPa SE 0.5 km/h 8 km/h 45.2% 0 mm 30 W/m2
17:54 23.8 °C 11.1 °C 1025.6 hPa ESE 0.2 km/h 8 km/h 44.8% 0 mm 30 W/m2
17:59 23.8 °C 10.9 °C 1025.6 hPa ESE 0.2 km/h 8 km/h 44.5% 0 mm 30 W/m2
18:04 23.7 °C 11.1 °C 1025.6 hPa ESE 0.3 km/h 8 km/h 45% 0 mm 30 W/m2
18:09 23.5 °C 11.1 °C 1025.6 hPa SE 0.5 km/h 8 km/h 45.7% 0 mm 30 W/m2
18:14 23.4 °C 11.3 °C 1025.6 hPa South 0.8 km/h 8 km/h 46.5% 0 mm 28 W/m2
18:19 23.3 °C 11.6 °C 1025.6 hPa South 0.5 km/h 8 km/h 47.7% 0 mm 28 W/m2
18:24 23.1 °C 11.8 °C 1025.6 hPa South 0.3 km/h 8 km/h 48.9% 0 mm 28 W/m2
18:29 23.1 °C 12.3 °C 1025.6 hPa ESE 1.9 km/h 9.7 km/h 50.7% 0 mm 28 W/m2
18:34 22.9 °C 12.8 °C 1025.6 hPa ESE 0.6 km/h 9.7 km/h 52.8% 0 mm 26 W/m2
18:39 22.8 °C 13.1 °C 1025.6 hPa SE 0.3 km/h 4.8 km/h 54.3% 0 mm 26 W/m2
18:44 22.8 °C 13.3 °C 1025.6 hPa SE 0.6 km/h 6.4 km/h 55% 0 mm 26 W/m2
18:49 22.7 °C 13.4 °C 1025.6 hPa SE 0.3 km/h 6.4 km/h 55.9% 0 mm 25 W/m2
18:54 22.5 °C 13.3 °C 1025.6 hPa South 1 km/h 6.4 km/h 56% 0 mm 25 W/m2
18:59 22.3 °C 13.3 °C 1025.6 hPa SE 0.8 km/h 8 km/h 56.7% 0 mm 25 W/m2
19:04 22.2 °C 13.1 °C 1025.6 hPa South 0.2 km/h 8 km/h 56.2% 0 mm 23 W/m2
19:09 22.1 °C 13.1 °C 1025.6 hPa South 0.3 km/h 3.2 km/h 56.7% 0 mm 23 W/m2
19:14 21.9 °C 12.8 °C 1025.6 hPa SSW 0.8 km/h 14.5 km/h 56.2% 0 mm 23 W/m2
19:19 21.8 °C 12.6 °C 1025.6 hPa South 0.2 km/h 14.5 km/h 55.8% 0 mm 21 W/m2
19:24 21.7 °C 12.7 °C 1026 hPa South 0.2 km/h 14.5 km/h 56.8% 0 mm 21 W/m2
19:29 21.6 °C 12.7 °C 1026 hPa Calm   14.5 km/h 57.2% 0 mm 19 W/m2
19:34 21.4 °C 12.6 °C 1026 hPa Calm   14.5 km/h 57% 0 mm 19 W/m2
19:39 21.3 °C 12.7 °C 1026.3 hPa South 0.5 km/h 3.2 km/h 58% 0 mm 18 W/m2
19:44 21.1 °C 12.6 °C 1026.3 hPa South 0.5 km/h 4.8 km/h 58% 0 mm 18 W/m2
19:49 20.9 °C 12.4 °C 1026.3 hPa South 0.3 km/h 4.8 km/h 58.2% 0 mm 16 W/m2
19:54 20.8 °C 12.6 °C 1026.3 hPa Calm   4.8 km/h 59.3% 0 mm 14 W/m2
19:59 20.7 °C 12.7 °C 1026.3 hPa South 0.2 km/h 4.8 km/h 60% 0 mm 12 W/m2
20:00 20.7 °C 12.6 °C 1026.3 hPa Calm   4.8 km/h 60% 0 mm 11 W/m2
20:09 20.4 °C 12.4 °C 1026.3 hPa Calm     60% 0 mm 9 W/m2
20:14 20.3 °C 12.2 °C 1026.3 hPa South 0.2 km/h 1.6 km/h 59.5% 0 mm 5 W/m2
20:19 20.1 °C 12.1 °C 1026.6 hPa South 0.5 km/h 4.8 km/h 60% 0 mm 0 W/m2
20:24 19.9 °C 12 °C 1026.6 hPa South 0.3 km/h 4.8 km/h 60.1% 0 mm 0 W/m2
20:29 19.8 °C 12 °C 1026.6 hPa Calm   4.8 km/h 60.6% 0 mm 0 W/m2
20:34 19.7 °C 12 °C 1026.6 hPa Calm   4.8 km/h 61% 0 mm 0 W/m2
20:39 19.6 °C 12.1 °C 1026.6 hPa Calm     61.9% 0 mm 0 W/m2
20:44 19.4 °C 12 °C 1026.6 hPa Calm     62% 0 mm 0 W/m2
20:49 19.3 °C 11.9 °C 1026.6 hPa Calm     62.3% 0 mm 0 W/m2
20:54 19.2 °C 12 °C 1026.6 hPa Calm     63% 0 mm 0 W/m2
20:59 19.1 °C 11.9 °C 1026.6 hPa Calm     63.4% 0 mm 0 W/m2
21:04 18.9 °C 11.9 °C 1027 hPa Calm     63.6% 0 mm 0 W/m2
21:09 18.8 °C 11.9 °C 1027 hPa Calm     64% 0 mm 0 W/m2
21:14 18.7 °C 11.8 °C 1027 hPa Calm     64% 0 mm 0 W/m2
21:19 18.6 °C 11.7 °C 1027 hPa Calm     64.2% 0 mm 0 W/m2
21:24 18.6 °C 11.8 °C 1027 hPa Calm     65% 0 mm 0 W/m2
21:28 18.4 °C 11.8 °C 1027 hPa Calm     65.1% 0 mm 0 W/m2
Hartford County Weather
Compliments of Weather Underground - 2 mb